OIAG 
Aghajari Airport
Iran 
ICAOStatus
OIAGOperational
LatitudeLongitude
30° 44' 39" N49° 40' 37" E
30.74440049.677200
Local Time (DST+5)UTC (GMT+4)
04-18-2014 07:49 am04-18-2014 03:19
Sunrise-SunsetLocalUTC
Begin Civil Twilight06:13 am01:43
Sunrise06:38 am02:08
Sunset07:42 pm15:12
End Civil Twilight08:07 pm15:37

Current Weather

METARObservedFlight Conditions

OIAG 180200Z 15004KT CAVOK 21/06 Q1008

Fri, Apr 18, 2014 @ 02:00 UTC(Z)

(1 Hour, 19 Minutes ago)

VFR

(Visual Flight Rules)

WindVisibilityCloudsConditions
150° at 4 knots (7 kph)
10 km or more
  • Clear skies
  • No significant weather
TemperaturesReadingsPrecipitation
Current Temp21°C (70°F)
Dewpoint6°C (43°F)
Humidity38%
Altimeter29.76"Hg
Sea Level Pressure1008mb
Field Elevation95.14'
None Recorded

Additional weather within a 92.6km radius of OIAG

Location METAR
OIAM

54.4km W (248°)

19 minutes ago
VFR VFR    MVFR MVFR    IFR IFR    LIFR LIFR    Unknown Unknown

Previous 24 hour Weather Graphs

  Loading...

CheckWX.com is intended as a tool to help pilots better visualize weather data.   It is not intended as a substitute for an official weather briefing obtained from a Flight Service Station.
CheckWX.com does not meet the FAA requirements for an official pre-flight weather briefing.   Therefore, it's important that pilots still call and obtain an official FSS pre-flight weather briefing.